Time;durP1;ratioP1;P1;durP2;ratioP2;P2;SDS_P1;SDS_P2;PMS_P1;PMS_P2;Temp;Humidity;BMP_temperature;BMP_pressure;BME280_temperature;BME280_humidity;BME280_pressure;Samples;Min_cycle;Max_cycle;Signal;HPM_P1;HPM_P2
2023/03/05 00:00:46;;;;;;;;;;;;;;;1.63;81.64;96722.09;5015557;28;19988;-74
2023/03/05 00:03:12;;;;;;;;;;;;;;;1.62;82.06;96725.66;5015520;28;19949;-74
2023/03/05 00:05:39;;;;;;;;;;;;;;;1.61;82.87;96729.19;5033296;28;19968;-74
2023/03/05 00:08:05;;;;;;;;;;;;;;;1.55;82.55;96727.22;5033275;28;19976;-74
2023/03/05 00:10:31;;;;;;;;;;;;;;;1.51;82.64;96733.72;5033231;28;20007;-76
2023/03/05 00:12:57;;;;;;;;;;;;;;;1.49;82.74;96729.63;5033009;28;19943;-74
2023/03/05 00:15:22;;;;;;;;;;;;;;;1.49;82.51;96732.22;5033044;28;19956;-74
2023/03/05 00:17:48;;;;;;;;;;;;;;;1.48;82.81;96749.50;5032927;28;20406;-74
2023/03/05 00:20:14;;;;;;;;;;;;;;;1.47;82.85;96742.72;5015209;28;19953;-74
2023/03/05 00:22:40;;;;;;;;;;;;;;;1.39;83.07;96740.09;5033188;28;19956;-75
2023/03/05 00:25:06;;;;;;;;;;;;;;;1.32;83.42;96747.63;5032921;28;19952;-74
2023/03/05 00:27:32;;;;;;;;;;;;;;;1.30;83.43;96747.00;5015470;28;19947;-74
2023/03/05 00:29:58;;;;;;;;;;;;;;;1.26;83.32;96744.84;5032706;28;20001;-74
2023/03/05 00:32:24;;;;;;;;;;;;;;;1.26;83.56;96737.09;5032566;28;19956;-74
2023/03/05 00:34:49;;;;;;;;;;;;;;;1.29;84.23;96739.38;5032216;28;19947;-73
2023/03/05 00:37:15;;;;;;;;;;;;;;;1.28;83.41;96728.25;5032953;28;19979;-74
2023/03/05 00:39:41;;;;;;;;;;;;;;;1.27;83.72;96734.34;5032920;28;19948;-74
2023/03/05 00:42:07;;;;;;;;;;;;;;;1.30;84.20;96728.06;5032590;28;20013;-74
2023/03/05 00:44:33;;;;;;;;;;;;;;;1.30;83.60;96733.25;5032423;28;20008;-74
2023/03/05 00:46:59;;;;;;;;;;;;;;;1.25;83.69;96725.94;5032276;28;19951;-74
2023/03/05 00:49:25;;;;;;;;;;;;;;;1.26;83.89;96727.59;5032244;28;20011;-74
2023/03/05 00:51:52;;;;;;;;;;;;;;;1.27;84.19;96729.19;5032404;28;19954;-75
2023/03/05 00:54:18;;;;;;;;;;;;;;;1.28;83.53;96720.50;5019151;28;19950;-74
2023/03/05 00:56:44;;;;;;;;;;;;;;;1.29;83.92;96716.94;5032523;28;20038;-74
2023/03/05 00:59:10;;;;;;;;;;;;;;;1.31;83.66;96714.22;5032348;28;19981;-74
2023/03/05 01:01:36;;;;;;;;;;;;;;;1.29;83.93;96708.38;5033597;28;19951;-74
2023/03/05 01:04:01;;;;;;;;;;;;;;;1.27;83.93;96707.72;5032131;28;20324;-74
2023/03/05 01:06:28;;;;;;;;;;;;;;;1.30;84.01;96705.66;5014766;28;19951;-74
2023/03/05 01:08:55;;;;;;;;;;;;;;;1.34;84.32;96706.13;5032052;28;19965;-74
2023/03/05 01:11:21;;;;;;;;;;;;;;;1.35;83.88;96711.16;5031972;28;19962;-74
2023/03/05 01:13:47;;;;;;;;;;;;;;;1.34;83.79;96709.53;5032302;28;19954;-74
2023/03/05 01:16:13;;;;;;;;;;;;;;;1.36;83.67;96707.59;5031971;28;20010;-74
2023/03/05 01:18:39;;;;;;;;;;;;;;;1.42;83.87;96708.75;5014179;28;20009;-74
2023/03/05 01:21:05;;;;;;;;;;;;;;;1.46;83.73;96702.31;5032085;28;19957;-77
2023/03/05 01:23:33;;;;;;;;;;;;;;;1.48;83.39;96699.59;5032052;28;19942;-74
2023/03/05 01:25:59;;;;;;;;;;;;;;;1.47;83.33;96695.38;5032040;28;19957;-74
2023/03/05 01:28:25;;;;;;;;;;;;;;;1.45;83.42;96692.97;5031994;28;19955;-74
2023/03/05 01:30:51;;;;;;;;;;;;;;;1.41;83.52;96689.06;5031687;28;20304;-74
2023/03/05 01:33:17;;;;;;;;;;;;;;;1.37;83.31;96690.34;5032320;28;19998;-74
2023/03/05 01:35:47;;;;;;;;;;;;;;;1.36;83.22;96684.34;5032148;28;19946;-74
2023/03/05 01:38:13;;;;;;;;;;;;;;;1.35;83.61;96685.31;5031740;28;19951;-74
2023/03/05 01:40:40;;;;;;;;;;;;;;;1.35;83.67;96685.31;5031706;28;19958;-74
2023/03/05 01:43:12;;;;;;;;;;;;;;;1.41;83.80;96682.13;5031672;28;19956;-74
2023/03/05 01:45:39;;;;;;;;;;;;;;;1.41;83.39;96669.19;5030591;28;19945;-74
2023/03/05 01:48:04;;;;;;;;;;;;;;;1.40;84.85;96687.44;5031333;28;19957;-77
2023/03/05 01:50:31;;;;;;;;;;;;;;;1.36;84.15;96675.78;5031503;28;19969;-74
2023/03/05 01:52:59;;;;;;;;;;;;;;;1.38;84.14;96668.69;5031601;28;19947;-74
2023/03/05 01:55:27;;;;;;;;;;;;;;;1.40;84.31;96670.16;5031752;28;19948;-74
2023/03/05 01:58:02;;;;;;;;;;;;;;;1.42;83.86;96663.06;5031522;28;19946;-74
2023/03/05 02:00:33;;;;;;;;;;;;;;;1.40;83.99;96664.97;5013795;28;19944;-74
2023/03/05 02:03:02;;;;;;;;;;;;;;;1.38;84.36;96661.75;5031235;28;20339;-74
2023/03/05 02:05:30;;;;;;;;;;;;;;;1.41;85.05;96661.44;5031312;28;19949;-74
2023/03/05 02:07:58;;;;;;;;;;;;;;;1.45;84.53;96654.19;5031290;28;19952;-75
2023/03/05 02:10:25;;;;;;;;;;;;;;;1.49;84.57;96644.34;5031221;28;19960;-76
2023/03/05 02:12:53;;;;;;;;;;;;;;;1.51;84.54;96639.81;5031210;28;19948;-74
2023/03/05 02:15:19;;;;;;;;;;;;;;;1.54;84.58;96647.28;5031311;28;19943;-74
2023/03/05 02:17:45;;;;;;;;;;;;;;;1.53;84.17;96632.72;5031093;28;20309;-75
2023/03/05 02:20:16;;;;;;;;;;;;;;;1.51;84.14;96627.75;5031227;28;19943;-75
2023/03/05 02:22:42;;;;;;;;;;;;;;;1.47;83.74;96634.19;5031182;28;19952;-74
2023/03/05 02:25:16;;;;;;;;;;;;;;;1.41;84.20;96630.44;5030532;28;19951;-74
2023/03/05 02:27:43;;;;;;;;;;;;;;;1.38;84.26;96633.31;5031020;28;20301;-74
2023/03/05 02:30:09;;;;;;;;;;;;;;;1.35;84.41;96633.63;5031049;28;19958;-74
2023/03/05 02:32:35;;;;;;;;;;;;;;;1.35;84.37;96625.09;5013695;28;20409;-74
2023/03/05 02:35:01;;;;;;;;;;;;;;;1.37;84.45;96626.53;5030907;28;19954;-74
2023/03/05 02:37:27;;;;;;;;;;;;;;;1.41;84.07;96627.06;5031090;28;19953;-74
2023/03/05 02:39:53;;;;;;;;;;;;;;;1.34;84.05;96621.66;5030645;28;19951;-74
2023/03/05 02:42:19;;;;;;;;;;;;;;;1.27;84.11;96618.09;5030815;28;19952;-74
2023/03/05 02:44:45;;;;;;;;;;;;;;;1.21;84.54;96618.72;5012917;28;19973;-74
2023/03/05 02:47:11;;;;;;;;;;;;;;;1.15;84.76;96625.31;5030881;28;19992;-74
2023/03/05 02:49:36;;;;;;;;;;;;;;;1.15;85.02;96624.50;5030569;28;20004;-74
2023/03/05 02:52:02;;;;;;;;;;;;;;;1.18;85.15;96616.47;5030732;28;19995;-74
2023/03/05 02:54:28;;;;;;;;;;;;;;;1.23;85.24;96619.38;5030509;28;20315;-74
2023/03/05 02:56:54;;;;;;;;;;;;;;;1.26;85.05;96613.09;5030414;28;19994;-74
2023/03/05 02:59:20;;;;;;;;;;;;;;;1.29;84.91;96612.78;5030736;28;20040;-74
2023/03/05 03:01:46;;;;;;;;;;;;;;;1.30;84.81;96604.06;5030706;28;20111;-74
2023/03/05 03:04:11;;;;;;;;;;;;;;;1.31;85.12;96603.91;5030446;28;19951;-74
2023/03/05 03:06:37;;;;;;;;;;;;;;;1.33;84.98;96609.72;5030557;28;19954;-74
2023/03/05 03:09:03;;;;;;;;;;;;;;;1.36;85.12;96600.84;5030174;28;19979;-74
2023/03/05 03:11:29;;;;;;;;;;;;;;;1.39;85.21;96595.38;5030421;28;19964;-74
2023/03/05 03:13:55;;;;;;;;;;;;;;;1.42;85.11;96595.06;5030525;28;19972;-74
2023/03/05 03:16:21;;;;;;;;;;;;;;;1.44;85.00;96589.75;5030623;28;20376;-74
2023/03/05 03:18:47;;;;;;;;;;;;;;;1.46;84.96;96588.63;5030728;28;20406;-74
2023/03/05 03:21:20;;;;;;;;;;;;;;;1.48;84.81;96583.31;5030364;28;19948;-74
2023/03/05 03:23:46;;;;;;;;;;;;;;;1.49;84.61;96579.72;5030550;28;19947;-74
2023/03/05 03:26:12;;;;;;;;;;;;;;;1.46;84.68;96577.47;5030390;28;19954;-74
2023/03/05 03:28:38;;;;;;;;;;;;;;;1.42;84.66;96576.97;5030367;28;19985;-74
2023/03/05 03:31:04;;;;;;;;;;;;;;;1.39;84.67;96583.28;5030260;28;20051;-74
2023/03/05 03:33:30;;;;;;;;;;;;;;;1.38;84.65;96575.66;5030316;28;20282;-74
2023/03/05 03:35:56;;;;;;;;;;;;;;;1.37;85.09;96576.66;5030003;28;19950;-74
2023/03/05 03:38:21;;;;;;;;;;;;;;;1.38;85.26;96570.50;5030452;28;19946;-75
2023/03/05 03:40:47;;;;;;;;;;;;;;;1.36;85.18;96575.81;5045580;28;19953;-74
2023/03/05 03:43:13;;;;;;;;;;;;;;;1.35;86.08;96576.78;5029710;28;19972;-73
2023/03/05 03:45:40;;;;;;;;;;;;;;;1.34;85.51;96574.38;5030566;28;19985;-74
2023/03/05 03:48:06;;;;;;;;;;;;;;;1.34;86.13;96575.16;5029971;28;19949;-74
2023/03/05 03:50:32;;;;;;;;;;;;;;;1.29;86.05;96572.25;5029813;28;19969;-74
2023/03/05 03:52:57;;;;;;;;;;;;;;;1.25;86.57;96578.69;5029996;28;20359;-74
2023/03/05 03:55:23;;;;;;;;;;;;;;;1.23;86.34;96570.28;5029869;28;19962;-75
2023/03/05 03:57:49;;;;;;;;;;;;;;;1.24;86.71;96573.69;5030546;28;20370;-74
2023/03/05 04:00:15;;;;;;;;;;;;;;;1.27;86.67;96569.00;5030330;28;20361;-75
2023/03/05 04:02:41;;;;;;;;;;;;;;;1.29;86.23;96563.69;5029979;28;20303;-74
2023/03/05 04:05:07;;;;;;;;;;;;;;;1.25;86.13;96554.66;5029689;28;19947;-75
2023/03/05 04:07:33;;;;;;;;;;;;;;;1.26;86.09;96561.41;5029729;28;19948;-74
2023/03/05 04:09:59;;;;;;;;;;;;;;;1.27;85.99;96556.09;5020702;28;19944;-74
2023/03/05 04:12:25;;;;;;;;;;;;;;;1.27;85.58;96550.94;5033153;28;20411;-74
2023/03/05 04:14:51;;;;;;;;;;;;;;;1.29;85.71;96556.75;5033275;28;19991;-74
2023/03/05 04:17:17;;;;;;;;;;;;;;;1.25;85.58;96552.06;5033133;28;19950;-74
2023/03/05 04:19:43;;;;;;;;;;;;;;;1.24;85.82;96553.00;5033122;28;19943;-74
2023/03/05 04:22:10;;;;;;;;;;;;;;;1.18;86.43;96559.63;5032800;28;20355;-74
2023/03/05 04:24:36;;;;;;;;;;;;;;;1.12;86.35;96549.91;5034072;28;19952;-74
2023/03/05 04:27:02;;;;;;;;;;;;;;;1.13;86.67;96556.69;5032861;28;19952;-74
2023/03/05 04:29:28;;;;;;;;;;;;;;;1.18;86.73;96555.25;5033129;28;19987;-74
2023/03/05 04:31:54;;;;;;;;;;;;;;;1.21;86.64;96554.94;5032977;28;19971;-74
2023/03/05 04:34:20;;;;;;;;;;;;;;;1.27;86.75;96550.13;5032703;28;19952;-74
2023/03/05 04:36:45;;;;;;;;;;;;;;;1.29;86.49;96543.84;5032574;28;19950;-74
2023/03/05 04:39:11;;;;;;;;;;;;;;;1.29;86.45;96545.63;5032697;28;19973;-74
2023/03/05 04:41:37;;;;;;;;;;;;;;;1.31;86.64;96546.28;5033062;28;19958;-74
2023/03/05 04:44:03;;;;;;;;;;;;;;;1.30;86.30;96535.13;5032502;28;20079;-74
2023/03/05 04:46:29;;;;;;;;;;;;;;;1.31;86.15;96530.78;5032617;28;19991;-74
2023/03/05 04:48:56;;;;;;;;;;;;;;;1.33;85.92;96529.63;5032541;28;19950;-74
2023/03/05 04:51:22;;;;;;;;;;;;;;;1.36;86.33;96531.09;5032750;28;19966;-74
2023/03/05 04:53:48;;;;;;;;;;;;;;;1.38;86.35;96524.78;5032567;28;20357;-74
2023/03/05 04:56:14;;;;;;;;;;;;;;;1.41;86.20;96521.91;5032692;28;20314;-74
2023/03/05 04:58:40;;;;;;;;;;;;;;;1.40;86.03;96528.03;5032316;28;20307;-74
2023/03/05 05:01:06;;;;;;;;;;;;;;;1.41;85.86;96515.94;5032392;28;19985;-74
2023/03/05 05:03:32;;;;;;;;;;;;;;;1.45;86.36;96524.16;5032177;28;19942;-74
2023/03/05 05:05:59;;;;;;;;;;;;;;;1.45;86.19;96517.25;5032621;28;19949;-74
2023/03/05 05:08:25;;;;;;;;;;;;;;;1.46;85.95;96518.84;5032123;28;19949;-74
2023/03/05 05:10:54;;;;;;;;;;;;;;;1.46;86.20;96523.22;5032238;28;19961;-74
2023/03/05 05:13:20;;;;;;;;;;;;;;;1.47;86.02;96523.06;5032511;28;19962;-74
2023/03/05 05:15:46;;;;;;;;;;;;;;;1.48;86.41;96527.25;5032217;28;20313;-74
2023/03/05 05:18:12;;;;;;;;;;;;;;;1.47;86.34;96519.63;5032142;28;19946;-75
2023/03/05 05:20:38;;;;;;;;;;;;;;;1.46;86.32;96512.88;5032262;28;19955;-74
2023/03/05 05:23:04;;;;;;;;;;;;;;;1.43;86.32;96519.16;5031895;28;20000;-74
2023/03/05 05:25:29;;;;;;;;;;;;;;;1.41;86.41;96524.50;5031950;28;19945;-74
2023/03/05 05:27:55;;;;;;;;;;;;;;;1.41;86.59;96521.09;5032029;28;19969;-74
2023/03/05 05:30:21;;;;;;;;;;;;;;;1.42;86.89;96523.50;5031851;28;19945;-74
2023/03/05 05:32:47;;;;;;;;;;;;;;;1.42;86.42;96514.97;5014458;28;19947;-74
2023/03/05 05:35:13;;;;;;;;;;;;;;;1.42;86.64;96520.94;5014504;28;19940;-74
2023/03/05 05:37:38;;;;;;;;;;;;;;;1.45;86.59;96519.00;5047436;28;19953;-74
2023/03/05 05:40:05;;;;;;;;;;;;;;;1.39;86.78;96518.69;5031994;28;20297;-75
2023/03/05 05:42:30;;;;;;;;;;;;;;;1.32;87.05;96522.84;5031774;28;19945;-74
2023/03/05 05:44:56;;;;;;;;;;;;;;;1.26;87.21;96520.91;5031569;28;20041;-74
2023/03/05 05:47:22;;;;;;;;;;;;;;;1.25;87.24;96519.28;5030934;28;19951;-74
2023/03/05 05:49:48;;;;;;;;;;;;;;;1.25;87.59;96526.22;5014376;28;19946;-74
2023/03/05 05:52:14;;;;;;;;;;;;;;;1.26;87.39;96526.06;5031378;28;20056;-74
2023/03/05 05:54:40;;;;;;;;;;;;;;;1.27;87.69;96517.34;5031544;28;20469;-74
2023/03/05 05:57:06;;;;;;;;;;;;;;;1.30;87.60;96526.56;5031689;28;20323;-74
2023/03/05 05:59:32;;;;;;;;;;;;;;;1.31;87.45;96518.66;5031384;28;19947;-75
2023/03/05 06:01:58;;;;;;;;;;;;;;;1.34;87.44;96523.50;5031621;28;20434;-74
2023/03/05 06:04:24;;;;;;;;;;;;;;;1.35;87.22;96511.41;5031545;28;19941;-74
2023/03/05 06:06:50;;;;;;;;;;;;;;;1.38;87.05;96521.41;5031267;28;19992;-74
2023/03/05 06:09:16;;;;;;;;;;;;;;;1.39;86.92;96518.69;5014047;28;19994;-74
2023/03/05 06:11:42;;;;;;;;;;;;;;;1.38;86.92;96511.06;5031199;28;20469;-74
2023/03/05 06:14:09;;;;;;;;;;;;;;;1.36;86.96;96515.59;5031178;28;20050;-74
2023/03/05 06:16:35;;;;;;;;;;;;;;;1.37;86.76;96514.63;5031573;28;19953;-74
2023/03/05 06:19:03;;;;;;;;;;;;;;;1.38;86.83;96518.81;5031792;28;19942;-74
2023/03/05 06:21:29;;;;;;;;;;;;;;;1.36;87.40;96513.81;5031334;28;19955;-74
2023/03/05 06:23:55;;;;;;;;;;;;;;;1.37;87.54;96518.03;5031068;28;19943;-75
2023/03/05 06:26:21;;;;;;;;;;;;;;;1.39;87.13;96510.13;5031160;28;19953;-74
2023/03/05 06:28:47;;;;;;;;;;;;;;;1.38;86.88;96509.28;5030933;28;19949;-74
2023/03/05 06:31:15;;;;;;;;;;;;;;;1.37;87.09;96512.06;5030816;28;19968;-74
2023/03/05 06:33:41;;;;;;;;;;;;;;;1.38;87.15;96505.91;5031019;28;19951;-74
2023/03/05 06:36:11;;;;;;;;;;;;;;;1.40;87.20;96511.72;5031455;28;20315;-74
2023/03/05 06:38:37;;;;;;;;;;;;;;;1.40;87.31;96512.53;5030879;28;19948;-74
2023/03/05 06:41:05;;;;;;;;;;;;;;;1.42;87.01;96505.41;5030967;28;19946;-74
2023/03/05 06:43:32;;;;;;;;;;;;;;;1.40;87.07;96507.34;5030510;28;20418;-74
2023/03/05 06:46:01;;;;;;;;;;;;;;;1.41;87.32;96510.78;5030789;28;19961;-74
2023/03/05 06:48:27;;;;;;;;;;;;;;;1.39;87.25;96510.91;5030842;28;19970;-74
2023/03/05 06:50:53;;;;;;;;;;;;;;;1.41;87.72;96510.78;5013072;28;19968;-77
2023/03/05 06:53:19;;;;;;;;;;;;;;;1.42;87.26;96505.41;5030467;28;19950;-74
2023/03/05 06:55:45;;;;;;;;;;;;;;;1.46;87.31;96502.53;5012988;28;19955;-75
2023/03/05 06:58:11;;;;;;;;;;;;;;;1.43;87.16;96498.50;5030731;28;19952;-74
2023/03/05 07:00:36;;;;;;;;;;;;;;;1.37;87.68;96499.94;5030935;28;19947;-74
2023/03/05 07:03:02;;;;;;;;;;;;;;;1.37;87.84;96502.53;5030490;28;20067;-74
2023/03/05 07:05:28;;;;;;;;;;;;;;;1.41;87.80;96503.03;5012934;28;20035;-74
2023/03/05 07:07:54;;;;;;;;;;;;;;;1.46;87.77;96499.94;5030629;28;20029;-74
2023/03/05 07:10:20;;;;;;;;;;;;;;;1.50;87.35;96498.66;5012886;28;19951;-74
2023/03/05 07:12:46;;;;;;;;;;;;;;;1.52;87.27;96492.38;5012806;28;19968;-74
2023/03/05 07:15:11;;;;;;;;;;;;;;;1.53;87.18;96495.75;5030329;28;20059;-74
2023/03/05 07:17:37;;;;;;;;;;;;;;;1.54;87.42;96492.22;5031633;28;19951;-74
2023/03/05 07:20:03;;;;;;;;;;;;;;;1.55;87.38;96486.84;5030534;28;19951;-74
2023/03/05 07:22:29;;;;;;;;;;;;;;;1.55;87.16;96488.66;5030489;28;19939;-74
2023/03/05 07:24:55;;;;;;;;;;;;;;;1.51;86.94;96488.19;5030475;28;20291;-74
2023/03/05 07:27:24;;;;;;;;;;;;;;;1.49;87.21;96490.13;5030256;28;19949;-74
2023/03/05 07:29:50;;;;;;;;;;;;;;;1.48;87.75;96501.41;5012634;28;19947;-74
2023/03/05 07:32:16;;;;;;;;;;;;;;;1.46;87.40;96500.75;5012569;28;20393;-74
2023/03/05 07:34:41;;;;;;;;;;;;;;;1.47;87.60;96502.38;5030539;28;19979;-74
2023/03/05 07:37:07;;;;;;;;;;;;;;;1.47;87.39;96489.47;5030217;28;19951;-74
2023/03/05 07:39:33;;;;;;;;;;;;;;;1.49;87.69;96484.13;5030139;28;19961;-74
2023/03/05 07:41:59;;;;;;;;;;;;;;;1.51;87.37;96487.34;5030718;28;20048;-74
2023/03/05 07:44:25;;;;;;;;;;;;;;;1.54;87.59;96484.47;5014839;28;19974;-74
2023/03/05 07:46:51;;;;;;;;;;;;;;;1.57;87.69;96474.59;5033654;28;20020;-74
2023/03/05 07:49:16;;;;;;;;;;;;;;;1.60;87.51;96476.06;5033481;28;19948;-74
2023/03/05 07:51:42;;;;;;;;;;;;;;;1.64;87.81;96482.53;5033663;28;19955;-74
2023/03/05 07:54:09;;;;;;;;;;;;;;;1.68;87.54;96483.00;5015708;28;20070;-74
2023/03/05 07:56:35;;;;;;;;;;;;;;;1.72;87.58;96479.94;5032539;28;20299;-74
2023/03/05 07:59:03;;;;;;;;;;;;;;;1.72;87.75;96477.38;5033606;28;19945;-76
2023/03/05 08:01:29;;;;;;;;;;;;;;;1.70;87.83;96481.06;5033336;28;19946;-74
2023/03/05 08:03:55;;;;;;;;;;;;;;;1.67;87.68;96477.03;5015881;28;19954;-74
2023/03/05 08:06:21;;;;;;;;;;;;;;;1.69;87.81;96484.63;5033014;28;19953;-74
2023/03/05 08:08:47;;;;;;;;;;;;;;;1.72;87.90;96482.53;5033318;28;19942;-74
2023/03/05 08:11:15;;;;;;;;;;;;;;;1.76;87.57;96475.25;5033010;28;19968;-74
2023/03/05 08:13:41;;;;;;;;;;;;;;;1.75;87.96;96484.78;5032860;28;19948;-74
2023/03/05 08:16:10;;;;;;;;;;;;;;;1.77;87.50;96476.88;5033241;28;19960;-74
2023/03/05 08:18:36;;;;;;;;;;;;;;;1.77;88.39;96480.25;5032961;28;19937;-74
2023/03/05 08:21:02;;;;;;;;;;;;;;;1.77;87.25;96471.72;5033048;28;19996;-74
2023/03/05 08:23:28;;;;;;;;;;;;;;;1.75;87.69;96473.66;5032793;28;20006;-74
2023/03/05 08:25:54;;;;;;;;;;;;;;;1.73;88.21;96473.00;5032970;28;19948;-74
2023/03/05 08:28:20;;;;;;;;;;;;;;;1.71;88.49;96483.50;5032752;28;19961;-74
2023/03/05 08:30:47;;;;;;;;;;;;;;;1.76;88.05;96476.03;5032757;28;20334;-75
2023/03/05 08:33:13;;;;;;;;;;;;;;;1.86;87.92;96472.50;5033213;28;19942;-74
2023/03/05 08:35:39;;;;;;;;;;;;;;;1.89;87.54;96472.16;5032857;28;19958;-74
2023/03/05 08:38:05;;;;;;;;;;;;;;;1.89;87.61;96470.41;5032587;28;19947;-75
2023/03/05 08:40:31;;;;;;;;;;;;;;;1.92;88.73;96474.44;5032885;28;19948;-74
2023/03/05 08:42:58;;;;;;;;;;;;;;;1.92;88.19;96464.91;5014666;28;19951;-74
2023/03/05 08:45:26;;;;;;;;;;;;;;;1.99;88.19;96476.19;5032682;28;19950;-74
2023/03/05 08:47:52;;;;;;;;;;;;;;;1.97;87.68;96464.41;5032534;28;20403;-74
2023/03/05 08:50:21;;;;;;;;;;;;;;;1.94;87.96;96465.56;5032726;28;20395;-74
2023/03/05 08:52:46;;;;;;;;;;;;;;;1.97;87.72;96470.38;5032311;28;19961;-74
2023/03/05 08:55:12;;;;;;;;;;;;;;;2.02;87.79;96462.97;5032233;28;20012;-74
2023/03/05 08:57:38;;;;;;;;;;;;;;;2.11;87.31;96453.41;5032526;28;20009;-74
2023/03/05 09:00:06;;;;;;;;;;;;;;;2.14;87.70;96458.25;5032472;28;19958;-74
2023/03/05 09:02:32;;;;;;;;;;;;;;;2.17;88.08;96457.91;5032408;28;19959;-74
2023/03/05 09:04:58;;;;;;;;;;;;;;;2.17;87.62;96455.34;5032242;28;19952;-74
2023/03/05 09:07:23;;;;;;;;;;;;;;;2.20;87.93;96460.16;5032487;28;19978;-74
2023/03/05 09:09:49;;;;;;;;;;;;;;;2.25;87.85;96457.09;5032172;28;19973;-75
2023/03/05 09:12:15;;;;;;;;;;;;;;;2.29;86.75;96449.81;5032294;28;19966;-74
2023/03/05 09:14:41;;;;;;;;;;;;;;;2.27;86.41;96434.47;5032145;28;19950;-74
2023/03/05 09:17:07;;;;;;;;;;;;;;;2.26;87.41;96448.34;5032222;28;19965;-74
2023/03/05 09:19:33;;;;;;;;;;;;;;;2.31;87.30;96446.09;5032036;28;19945;-74
2023/03/05 09:21:59;;;;;;;;;;;;;;;2.35;87.84;96449.97;5032399;28;20020;-74
2023/03/05 09:24:25;;;;;;;;;;;;;;;2.43;88.46;96447.34;5031949;28;20073;-74
2023/03/05 09:26:51;;;;;;;;;;;;;;;2.54;88.10;96443.59;5031865;28;19954;-74
2023/03/05 09:29:17;;;;;;;;;;;;;;;2.60;86.71;96429.16;5014854;28;20035;-74
2023/03/05 09:31:42;;;;;;;;;;;;;;;2.61;86.19;96423.81;5031804;28;20013;-74
2023/03/05 09:34:09;;;;;;;;;;;;;;;2.67;86.32;96422.34;5031889;28;19998;-74
2023/03/05 09:36:35;;;;;;;;;;;;;;;2.77;86.36;96420.38;5031704;28;19952;-75
2023/03/05 09:39:02;;;;;;;;;;;;;;;2.83;86.54;96418.88;5031878;28;19953;-74
2023/03/05 09:41:47;;;;;;;;;;;;;;;2.88;85.83;96421.78;5032802;28;19946;-75
2023/03/05 09:44:19;;;;;;;;;;;;;;;2.91;85.55;96407.66;5031647;28;19978;-74
2023/03/05 09:46:45;;;;;;;;;;;;;;;2.97;85.72;96407.78;5031538;28;19952;-74
2023/03/05 09:49:22;;;;;;;;;;;;;;;2.99;85.22;96402.44;5032009;28;19958;-74
2023/03/05 09:51:51;;;;;;;;;;;;;;;3.04;85.11;96398.38;5031564;28;19975;-74
2023/03/05 09:54:23;;;;;;;;;;;;;;;3.11;84.78;96395.06;5013683;28;19950;-74
2023/03/05 09:56:52;;;;;;;;;;;;;;;3.19;84.75;96392.41;5031615;28;19949;-74
2023/03/05 09:59:41;;;;;;;;;;;;;;;3.30;84.86;96396.38;5031639;28;19944;-74
2023/03/05 10:02:18;;;;;;;;;;;;;;;3.36;83.88;96377.56;5041062;28;19948;-74
2023/03/05 10:04:47;;;;;;;;;;;;;;;3.41;83.00;96378.66;5031714;28;19946;-74
2023/03/05 10:07:17;;;;;;;;;;;;;;;3.52;82.93;96376.63;5030332;28;19958;-75
2023/03/05 10:09:49;;;;;;;;;;;;;;;3.61;83.17;96370.38;5031582;28;19948;-75
2023/03/05 10:12:31;;;;;;;;;;;;;;;3.65;82.90;96364.69;5031632;28;19965;-76
2023/03/05 10:14:59;;;;;;;;;;;;;;;3.78;83.17;96366.69;5031898;28;19951;-74
2023/03/05 10:17:37;;;;;;;;;;;;;;;3.92;81.34;96348.69;5031678;28;19953;-75
2023/03/05 10:20:03;;;;;;;;;;;;;;;4.02;81.56;96347.44;5031108;28;19943;-74
2023/03/05 10:22:37;;;;;;;;;;;;;;;4.17;81.23;96339.66;5031268;28;19968;-74
2023/03/05 10:25:21;;;;;;;;;;;;;;;4.24;80.11;96334.56;5030406;28;19949;-74
2023/03/05 10:27:49;;;;;;;;;;;;;;;4.30;79.68;96328.63;5013727;28;19940;-75
2023/03/05 10:30:18;;;;;;;;;;;;;;;4.33;78.29;96315.31;5031121;28;20452;-75
2023/03/05 10:32:53;;;;;;;;;;;;;;;4.30;78.13;96312.25;5030839;28;19959;-75
2023/03/05 10:35:22;;;;;;;;;;;;;;;4.29;78.24;96308.88;5031467;28;19946;-75
2023/03/05 10:37:57;;;;;;;;;;;;;;;4.30;77.04;96301.88;5030965;28;19939;-75
2023/03/05 10:40:41;;;;;;;;;;;;;;;4.26;77.79;96302.25;5030490;28;20325;-74
2023/03/05 10:43:23;;;;;;;;;;;;;;;4.18;78.08;96297.16;5019108;28;19957;-75
2023/03/05 10:45:51;;;;;;;;;;;;;;;4.20;78.34;96297.78;5016397;28;19950;-74
2023/03/05 10:48:35;;;;;;;;;;;;;;;4.25;78.35;96295.44;5030702;28;20319;-74
2023/03/05 10:51:04;;;;;;;;;;;;;;;4.27;77.77;96288.28;5030879;28;20278;-74
2023/03/05 10:53:48;;;;;;;;;;;;;;;4.25;77.65;96284.25;5030581;28;19960;-74
2023/03/05 10:56:15;;;;;;;;;;;;;;;4.24;78.01;96280.03;5031074;28;19940;-75
2023/03/05 10:58:40;;;;;;;;;;;;;;;4.25;77.39;96282.47;5030816;28;19951;-75
2023/03/05 11:01:09;;;;;;;;;;;;;;;4.20;77.37;96274.44;5031885;28;20478;-74
2023/03/05 11:03:44;;;;;;;;;;;;;;;4.17;77.51;96277.38;5030676;28;20317;-74
2023/03/05 11:06:11;;;;;;;;;;;;;;;4.20;77.27;96271.84;5030962;28;20438;-74
2023/03/05 11:08:37;;;;;;;;;;;;;;;4.23;76.85;96271.47;5030463;28;19956;-75
2023/03/05 11:11:03;;;;;;;;;;;;;;;4.18;76.17;96250.44;5030474;28;19950;-75
2023/03/05 11:13:29;;;;;;;;;;;;;;;4.13;75.46;96249.38;5030557;28;19970;-74
2023/03/05 11:16:03;;;;;;;;;;;;;;;4.09;77.35;96258.50;5030387;28;20384;-75
2023/03/05 11:18:33;;;;;;;;;;;;;;;4.06;76.15;96247.50;5033040;28;20420;-74
2023/03/05 11:21:06;;;;;;;;;;;;;;;3.99;76.93;96248.41;5032775;28;19949;-74
2023/03/05 11:23:32;;;;;;;;;;;;;;;3.99;77.23;96256.19;5034047;28;20408;-74
2023/03/05 11:25:59;;;;;;;;;;;;;;;4.01;77.94;96260.22;5033917;28;19953;-74
2023/03/05 11:28:25;;;;;;;;;;;;;;;4.02;77.89;96245.47;5033898;28;20345;-75
2023/03/05 11:30:56;;;;;;;;;;;;;;;4.05;78.29;96258.06;5033644;28;19939;-74
2023/03/05 11:33:22;;;;;;;;;;;;;;;4.09;77.76;96253.31;5034189;28;19964;-75
2023/03/05 11:35:50;;;;;;;;;;;;;;;4.08;77.55;96249.94;5033594;28;19951;-75
2023/03/05 11:38:26;;;;;;;;;;;;;;;4.06;77.38;96242.31;5033585;28;20295;-74
2023/03/05 11:40:54;;;;;;;;;;;;;;;4.04;77.09;96241.69;5033894;28;19948;-75
2023/03/05 11:43:21;;;;;;;;;;;;;;;4.04;77.07;96238.31;5033279;28;19980;-75
2023/03/05 11:45:53;;;;;;;;;;;;;;;4.02;77.12;96224.69;5034088;28;19955;-75
2023/03/05 11:48:23;;;;;;;;;;;;;;;3.94;77.75;96235.19;5034109;28;19946;-74
2023/03/05 11:50:53;;;;;;;;;;;;;;;3.88;77.36;96225.53;5033681;28;20417;-74
2023/03/05 11:53:21;;;;;;;;;;;;;;;3.89;77.92;96234.94;5033572;28;19959;-74
2023/03/05 11:56:04;;;;;;;;;;;;;;;3.88;77.74;96223.72;5033300;28;19947;-75
2023/03/05 11:58:38;;;;;;;;;;;;;;;3.88;77.73;96228.13;5033592;28;20057;-74
2023/03/05 12:01:13;;;;;;;;;;;;;;;3.93;77.57;96218.03;5033633;28;20320;-75
2023/03/05 12:03:39;;;;;;;;;;;;;;;3.97;77.10;96206.25;5033533;28;19946;-74
2023/03/05 12:06:12;;;;;;;;;;;;;;;4.03;76.65;96190.78;5033347;28;20446;-74
2023/03/05 12:08:40;;;;;;;;;;;;;;;4.06;76.46;96190.41;5033024;28;19948;-74
2023/03/05 12:11:11;;;;;;;;;;;;;;;4.15;76.52;96190.31;5032075;28;20318;-74
2023/03/05 12:13:42;;;;;;;;;;;;;;;4.19;76.25;96181.97;5033007;28;19969;-75
2023/03/05 12:16:12;;;;;;;;;;;;;;;4.20;74.79;96168.03;5033235;28;19949;-74
2023/03/05 12:18:56;;;;;;;;;;;;;;;4.20;75.45;96173.22;5033399;28;19947;-74
2023/03/05 12:21:27;;;;;;;;;;;;;;;4.19;75.42;96168.19;5032934;28;19949;-74
2023/03/05 12:24:00;;;;;;;;;;;;;;;4.15;75.32;96164.34;5033211;28;20419;-74
2023/03/05 12:26:45;;;;;;;;;;;;;;;4.11;75.83;96168.31;5032942;28;19949;-75
2023/03/05 12:29:29;;;;;;;;;;;;;;;4.04;77.23;96176.81;5031886;28;19946;-74
2023/03/05 12:31:56;;;;;;;;;;;;;;;3.98;78.15;96187.13;5032924;28;19962;-74
2023/03/05 12:34:40;;;;;;;;;;;;;;;3.91;77.97;96178.47;5033335;28;20325;-74
2023/03/05 12:37:09;;;;;;;;;;;;;;;3.82;78.72;96185.53;5022289;28;19951;-74
2023/03/05 12:39:46;;;;;;;;;;;;;;;3.72;79.00;96190.22;5032775;28;20419;-76
2023/03/05 12:42:41;;;;;;;;;;;;;;;3.65;79.53;96184.94;5033007;28;19950;-74
2023/03/05 12:45:10;;;;;;;;;;;;;;;3.61;80.08;96196.66;5032332;28;19977;-74
2023/03/05 12:47:37;;;;;;;;;;;;;;;3.55;80.40;96195.59;5032878;28;19954;-74
2023/03/05 12:50:04;;;;;;;;;;;;;;;3.53;80.89;96196.75;5032525;28;19947;-74
2023/03/05 12:52:31;;;;;;;;;;;;;;;3.50;80.70;96184.94;5032629;28;19969;-75
2023/03/05 12:55:20;;;;;;;;;;;;;;;3.49;81.04;96185.16;5032473;28;19967;-74
2023/03/05 12:57:48;;;;;;;;;;;;;;;3.49;81.03;96187.75;4995461;28;20313;-74
2023/03/05 13:00:20;;;;;;;;;;;;;;;3.48;81.27;96181.72;5032606;28;19951;-75